sensor_id;sensor_type;location;lat;lon;timestamp;pressure;altitude;pressure_sealevel;temperature;humidity
3524;BME280;1776;53.330;11.498;2023-07-22T00:00:48;25531.09;;;-147.39;65.00
3524;BME280;1776;53.330;11.498;2023-07-22T00:03:13;25504.66;;;-147.39;65.53
3524;BME280;1776;53.330;11.498;2023-07-22T00:05:39;25559.56;;;-147.39;65.42
3524;BME280;1776;53.330;11.498;2023-07-22T00:08:05;25480.25;;;-147.39;65.58
3524;BME280;1776;53.330;11.498;2023-07-22T00:10:31;25472.09;;;-147.39;66.20
3524;BME280;1776;53.330;11.498;2023-07-22T00:12:56;25492.44;;;-147.39;66.02
3524;BME280;1776;53.330;11.498;2023-07-22T00:15:21;25463.97;;;-147.39;65.85
3524;BME280;1776;53.330;11.498;2023-07-22T00:17:49;25474.13;;;-147.39;66.03
3524;BME280;1776;53.330;11.498;2023-07-22T00:20:14;25565.66;;;-147.39;65.68
3524;BME280;1776;53.330;11.498;2023-07-22T00:22:39;25512.78;;;-147.39;66.19
3524;BME280;1776;53.330;11.498;2023-07-22T00:25:09;25423.28;;;-147.39;67.10
3524;BME280;1776;53.330;11.498;2023-07-22T00:27:40;25445.66;;;-147.39;66.77
3524;BME280;1776;53.330;11.498;2023-07-22T00:30:06;25431.44;;;-147.39;66.36
3524;BME280;1776;53.330;11.498;2023-07-22T00:32:32;25417.19;;;-147.39;66.22
3524;BME280;1776;53.330;11.498;2023-07-22T00:34:58;25411.09;;;-147.39;66.19
3524;BME280;1776;53.330;11.498;2023-07-22T00:37:23;25421.25;;;-147.39;66.12
3524;BME280;1776;53.330;11.498;2023-07-22T00:39:48;25370.41;;;-147.39;67.22
3524;BME280;1776;53.330;11.498;2023-07-22T00:42:13;25346.00;;;-147.39;67.39
3524;BME280;1776;53.330;11.498;2023-07-22T00:44:39;25407.03;;;-147.39;67.03
3524;BME280;1776;53.330;11.498;2023-07-22T00:47:04;25366.34;;;-147.39;67.05
3524;BME280;1776;53.330;11.498;2023-07-22T00:49:30;25388.72;;;-147.39;67.13
3524;BME280;1776;53.330;11.498;2023-07-22T00:52:00;25376.50;;;-147.39;66.97
3524;BME280;1776;53.330;11.498;2023-07-22T00:54:27;25321.59;;;-147.39;67.41
3524;BME280;1776;53.330;11.498;2023-07-22T00:56:53;25317.53;;;-147.39;67.97
3524;BME280;1776;53.330;11.498;2023-07-22T00:59:19;25325.66;;;-147.39;67.69
3524;BME280;1776;53.330;11.498;2023-07-22T01:01:45;25329.72;;;-147.39;67.54
3524;BME280;1776;53.330;11.498;2023-07-22T01:04:13;25341.94;;;-147.39;67.39
3524;BME280;1776;53.330;11.498;2023-07-22T01:06:40;25319.56;;;-147.39;67.15
3524;BME280;1776;53.330;11.498;2023-07-22T01:09:05;25368.38;;;-147.39;67.07
3524;BME280;1776;53.330;11.498;2023-07-22T01:11:32;25313.47;;;-147.39;66.90
3524;BME280;1776;53.330;11.498;2023-07-22T01:13:57;25311.44;;;-147.39;66.59
3524;BME280;1776;53.330;11.498;2023-07-22T01:16:26;25319.56;;;-147.39;66.53
3524;BME280;1776;53.330;11.498;2023-07-22T01:18:52;25101.94;;;-147.39;66.67
3524;BME280;1776;53.330;11.498;2023-07-22T01:21:19;25341.94;;;-147.39;66.72
3524;BME280;1776;53.330;11.498;2023-07-22T01:23:46;25463.97;;;-147.39;67.23
3524;BME280;1776;53.330;11.498;2023-07-22T01:26:12;25250.41;;;-147.39;68.16
3524;BME280;1776;53.330;11.498;2023-07-22T01:28:38;25309.38;;;-147.39;67.75
3524;BME280;1776;53.330;11.498;2023-07-22T01:31:03;25228.03;;;-147.39;68.77
3524;BME280;1776;53.330;11.498;2023-07-22T01:33:30;25242.28;;;-147.39;68.45
3524;BME280;1776;53.330;11.498;2023-07-22T01:35:56;25260.56;;;-147.39;68.00
3524;BME280;1776;53.330;11.498;2023-07-22T01:38:21;25252.44;;;-147.39;67.57
3524;BME280;1776;53.330;11.498;2023-07-22T01:40:46;24782.66;;;-147.39;67.25
3524;BME280;1776;53.330;11.498;2023-07-22T01:43:12;25189.38;;;-147.39;68.32
3524;BME280;1776;53.330;11.498;2023-07-22T01:45:38;25250.41;;;-147.39;67.43
3524;BME280;1776;53.330;11.498;2023-07-22T01:48:05;25256.50;;;-147.39;67.73
3524;BME280;1776;53.330;11.498;2023-07-22T01:50:31;25248.38;;;-147.39;67.74
3524;BME280;1776;53.330;11.498;2023-07-22T01:52:56;25242.28;;;-147.39;67.48
3524;BME280;1776;53.330;11.498;2023-07-22T01:55:21;25272.78;;;-147.39;67.68
3524;BME280;1776;53.330;11.498;2023-07-22T01:57:47;25230.06;;;-147.39;68.20
3524;BME280;1776;53.330;11.498;2023-07-22T02:00:13;25244.31;;;-147.39;67.85
3524;BME280;1776;53.330;11.498;2023-07-22T02:02:40;25228.03;;;-147.39;68.85
3524;BME280;1776;53.330;11.498;2023-07-22T02:05:05;25154.81;;;-147.39;69.17
3524;BME280;1776;53.330;11.498;2023-07-22T02:07:31;25278.88;;;-147.39;69.36
3524;BME280;1776;53.330;11.498;2023-07-22T02:09:56;25152.78;;;-147.39;70.43
3524;BME280;1776;53.330;11.498;2023-07-22T02:12:21;25158.88;;;-147.39;70.26
3524;BME280;1776;53.330;11.498;2023-07-22T02:14:47;25110.06;;;-147.39;70.83
3524;BME280;1776;53.330;11.498;2023-07-22T02:17:12;25142.63;;;-147.39;71.15
3524;BME280;1776;53.330;11.498;2023-07-22T02:19:37;25126.34;;;-147.39;70.85
3524;BME280;1776;53.330;11.498;2023-07-22T02:22:05;25158.88;;;-147.39;70.80
3524;BME280;1776;53.330;11.498;2023-07-22T02:24:31;25079.56;;;-147.39;71.22
3524;BME280;1776;53.330;11.498;2023-07-22T02:26:56;25134.47;;;-147.39;70.84
3524;BME280;1776;53.330;11.498;2023-07-22T02:29:22;25126.34;;;-147.39;70.44
3524;BME280;1776;53.330;11.498;2023-07-22T02:31:47;25144.66;;;-147.39;70.06
3524;BME280;1776;53.330;11.498;2023-07-22T02:34:12;25124.31;;;-147.39;69.43
3524;BME280;1776;53.330;11.498;2023-07-22T02:36:38;25077.53;;;-147.39;70.72
3524;BME280;1776;53.330;11.498;2023-07-22T02:39:03;25073.47;;;-147.39;70.20
3524;BME280;1776;53.330;11.498;2023-07-22T02:41:28;25071.44;;;-147.39;70.89
3524;BME280;1776;53.330;11.498;2023-07-22T02:43:54;25053.13;;;-147.39;71.03
3524;BME280;1776;53.330;11.498;2023-07-22T02:46:19;25079.56;;;-147.39;71.53
3524;BME280;1776;53.330;11.498;2023-07-22T02:48:44;25020.59;;;-147.39;71.94
3524;BME280;1776;53.330;11.498;2023-07-22T02:51:10;25008.38;;;-147.39;72.48
3524;BME280;1776;53.330;11.498;2023-07-22T02:53:36;25004.31;;;-147.39;72.24
3524;BME280;1776;53.330;11.498;2023-07-22T02:56:02;24986.00;;;-147.39;72.81
3524;BME280;1776;53.330;11.498;2023-07-22T02:58:28;24994.16;;;-147.39;72.85
3524;BME280;1776;53.330;11.498;2023-07-22T03:00:53;24927.03;;;-147.39;73.65
3524;BME280;1776;53.330;11.498;2023-07-22T03:03:19;24910.75;;;-147.39;74.20
3524;BME280;1776;53.330;11.498;2023-07-22T03:05:44;24945.34;;;-147.39;73.56
3524;BME280;1776;53.330;11.498;2023-07-22T03:08:10;24951.44;;;-147.39;73.01
3524;BME280;1776;53.330;11.498;2023-07-22T03:10:35;24904.66;;;-147.39;73.62
3524;BME280;1776;53.330;11.498;2023-07-22T03:13:00;24910.75;;;-147.39;73.86
3524;BME280;1776;53.330;11.498;2023-07-22T03:15:27;24859.94;;;-147.39;74.06
3524;BME280;1776;53.330;11.498;2023-07-22T03:17:54;24868.06;;;-147.39;73.81
3524;BME280;1776;53.330;11.498;2023-07-22T03:20:21;24859.94;;;-147.39;74.20
3524;BME280;1776;53.330;11.498;2023-07-22T03:22:47;24884.31;;;-147.39;73.72
3524;BME280;1776;53.330;11.498;2023-07-22T03:25:14;24851.78;;;-147.39;73.82
3524;BME280;1776;53.330;11.498;2023-07-22T03:27:41;24861.97;;;-147.39;73.56
3524;BME280;1776;53.330;11.498;2023-07-22T03:30:07;24868.06;;;-147.39;73.11
3524;BME280;1776;53.330;11.498;2023-07-22T03:32:33;24857.88;;;-147.39;72.77
3524;BME280;1776;53.330;11.498;2023-07-22T03:34:58;24914.84;;;-147.39;71.93
3524;BME280;1776;53.330;11.498;2023-07-22T03:37:24;24910.75;;;-147.39;71.91
3524;BME280;1776;53.330;11.498;2023-07-22T03:39:49;24886.38;;;-147.39;71.92
3524;BME280;1776;53.330;11.498;2023-07-22T03:42:15;24898.56;;;-147.39;71.82
3524;BME280;1776;53.330;11.498;2023-07-22T03:44:41;25020.59;;;-147.39;72.71
3524;BME280;1776;53.330;11.498;2023-07-22T03:47:06;24935.16;;;-147.39;72.87
3524;BME280;1776;53.330;11.498;2023-07-22T03:49:31;24866.03;;;-147.39;72.97
3524;BME280;1776;53.330;11.498;2023-07-22T03:51:57;24882.28;;;-147.39;72.99
3524;BME280;1776;53.330;11.498;2023-07-22T03:54:22;24839.59;;;-147.39;73.73
3524;BME280;1776;53.330;11.498;2023-07-22T03:56:47;24833.50;;;-147.39;73.89
3524;BME280;1776;53.330;11.498;2023-07-22T03:59:12;24802.97;;;-147.39;73.87
3524;BME280;1776;53.330;11.498;2023-07-22T04:01:38;24800.94;;;-147.39;73.63
3524;BME280;1776;53.330;11.498;2023-07-22T04:04:03;24678.94;;;-147.39;73.68
3524;BME280;1776;53.330;11.498;2023-07-22T04:06:29;24762.31;;;-147.39;74.20
3524;BME280;1776;53.330;11.498;2023-07-22T04:08:54;24807.03;;;-147.39;73.57
3524;BME280;1776;53.330;11.498;2023-07-22T04:11:19;24766.38;;;-147.39;74.26
3524;BME280;1776;53.330;11.498;2023-07-22T04:13:44;24788.75;;;-147.39;74.51
3524;BME280;1776;53.330;11.498;2023-07-22T04:16:10;24780.63;;;-147.39;74.05
3524;BME280;1776;53.330;11.498;2023-07-22T04:18:35;24762.31;;;-147.39;73.90
3524;BME280;1776;53.330;11.498;2023-07-22T04:21:00;24762.31;;;-147.39;74.17
3524;BME280;1776;53.330;11.498;2023-07-22T04:23:26;24788.75;;;-147.39;73.88
3524;BME280;1776;53.330;11.498;2023-07-22T04:25:52;24774.50;;;-147.39;73.68
3524;BME280;1776;53.330;11.498;2023-07-22T04:28:17;24794.84;;;-147.39;74.14
3524;BME280;1776;53.330;11.498;2023-07-22T04:30:43;24721.63;;;-147.39;74.15
3524;BME280;1776;53.330;11.498;2023-07-22T04:33:08;24715.53;;;-147.39;75.02
3524;BME280;1776;53.330;11.498;2023-07-22T04:35:40;24725.69;;;-147.39;74.95
3524;BME280;1776;53.330;11.498;2023-07-22T04:38:06;24796.88;;;-147.39;74.13
3524;BME280;1776;53.330;11.498;2023-07-22T04:40:31;24689.09;;;-147.39;74.88
3524;BME280;1776;53.330;11.498;2023-07-22T04:42:57;24469.47;;;-147.39;75.47
3524;BME280;1776;53.330;11.498;2023-07-22T04:45:23;24664.69;;;-147.39;76.14
3524;BME280;1776;53.330;11.498;2023-07-22T04:47:51;24664.69;;;-147.39;76.00
3524;BME280;1776;53.330;11.498;2023-07-22T04:50:17;24644.34;;;-147.39;75.43
3524;BME280;1776;53.330;11.498;2023-07-22T04:52:45;24685.03;;;-147.39;75.16
3524;BME280;1776;53.330;11.498;2023-07-22T04:55:11;24654.53;;;-147.39;75.52
3524;BME280;1776;53.330;11.498;2023-07-22T04:57:38;24680.97;;;-147.39;75.68
3524;BME280;1776;53.330;11.498;2023-07-22T05:00:05;24613.84;;;-147.39;76.00
3524;BME280;1776;53.330;11.498;2023-07-22T05:02:32;24640.28;;;-147.39;75.84
3524;BME280;1776;53.330;11.498;2023-07-22T05:04:57;24622.00;;;-147.39;75.70
3524;BME280;1776;53.330;11.498;2023-07-22T05:07:23;24617.94;;;-147.39;75.73
3524;BME280;1776;53.330;11.498;2023-07-22T05:09:49;24611.81;;;-147.39;75.76
3524;BME280;1776;53.330;11.498;2023-07-22T05:12:15;24634.19;;;-147.39;76.19
3524;BME280;1776;53.330;11.498;2023-07-22T05:14:40;24611.81;;;-147.39;76.10
3524;BME280;1776;53.330;11.498;2023-07-22T05:17:05;24587.41;;;-147.39;76.04
3524;BME280;1776;53.330;11.498;2023-07-22T05:19:31;24581.31;;;-147.39;75.98
3524;BME280;1776;53.330;11.498;2023-07-22T05:21:56;24540.66;;;-147.39;75.67
3524;BME280;1776;53.330;11.498;2023-07-22T05:24:21;24552.84;;;-147.39;75.70
3524;BME280;1776;53.330;11.498;2023-07-22T05:26:46;24636.22;;;-147.39;75.62
3524;BME280;1776;53.330;11.498;2023-07-22T05:29:12;24575.22;;;-147.39;75.25
3524;BME280;1776;53.330;11.498;2023-07-22T05:31:37;24593.53;;;-147.39;75.35
3524;BME280;1776;53.330;11.498;2023-07-22T05:34:03;24589.47;;;-147.39;75.26
3524;BME280;1776;53.330;11.498;2023-07-22T05:36:29;24652.50;;;-147.39;75.41
3524;BME280;1776;53.330;11.498;2023-07-22T05:38:54;24638.25;;;-147.39;75.23
3524;BME280;1776;53.330;11.498;2023-07-22T05:41:19;24573.19;;;-147.39;75.26
3524;BME280;1776;53.330;11.498;2023-07-22T05:43:45;24561.00;;;-147.39;75.76
3524;BME280;1776;53.330;11.498;2023-07-22T05:46:10;24615.88;;;-147.39;75.43
3524;BME280;1776;53.330;11.498;2023-07-22T05:48:35;24613.84;;;-147.39;75.46
3524;BME280;1776;53.330;11.498;2023-07-22T05:51:00;24624.03;;;-147.39;74.75
3524;BME280;1776;53.330;11.498;2023-07-22T05:53:26;24632.16;;;-147.39;74.17
3524;BME280;1776;53.330;11.498;2023-07-22T05:55:51;24628.09;;;-147.39;73.93
3524;BME280;1776;53.330;11.498;2023-07-22T05:58:17;24685.03;;;-147.39;74.13
3524;BME280;1776;53.330;11.498;2023-07-22T06:00:43;24680.97;;;-147.39;73.96
3524;BME280;1776;53.330;11.498;2023-07-22T06:03:08;24634.19;;;-147.39;73.80
3524;BME280;1776;53.330;11.498;2023-07-22T06:05:34;24615.88;;;-147.39;73.50
3524;BME280;1776;53.330;11.498;2023-07-22T06:07:59;24678.94;;;-147.39;73.27
3524;BME280;1776;53.330;11.498;2023-07-22T06:10:24;24676.91;;;-147.39;73.06
3524;BME280;1776;53.330;11.498;2023-07-22T06:12:50;24766.38;;;-147.39;72.86
3524;BME280;1776;53.330;11.498;2023-07-22T06:15:15;24634.19;;;-147.39;73.00
3524;BME280;1776;53.330;11.498;2023-07-22T06:17:40;24670.78;;;-147.39;73.06
3524;BME280;1776;53.330;11.498;2023-07-22T06:20:06;24654.53;;;-147.39;73.00
3524;BME280;1776;53.330;11.498;2023-07-22T06:22:32;24678.94;;;-147.39;73.14
3524;BME280;1776;53.330;11.498;2023-07-22T06:24:57;24683.00;;;-147.39;72.69
3524;BME280;1776;53.330;11.498;2023-07-22T06:27:22;24652.50;;;-147.39;72.62
3524;BME280;1776;53.330;11.498;2023-07-22T06:29:48;24687.06;;;-147.39;72.88
3524;BME280;1776;53.330;11.498;2023-07-22T06:32:13;24691.13;;;-147.39;72.84
3524;BME280;1776;53.330;11.498;2023-07-22T06:34:38;24689.09;;;-147.39;72.75
3524;BME280;1776;53.330;11.498;2023-07-22T06:37:04;24721.63;;;-147.39;72.35
3524;BME280;1776;53.330;11.498;2023-07-22T06:39:29;24723.66;;;-147.39;72.26
3524;BME280;1776;53.330;11.498;2023-07-22T06:41:55;24746.03;;;-147.39;71.82
3524;BME280;1776;53.330;11.498;2023-07-22T06:44:20;24739.94;;;-147.39;71.23
3524;BME280;1776;53.330;11.498;2023-07-22T06:46:45;24977.88;;;-147.39;71.04
3524;BME280;1776;53.330;11.498;2023-07-22T06:49:11;24788.75;;;-147.39;71.04
3524;BME280;1776;53.330;11.498;2023-07-22T06:51:36;24786.72;;;-147.39;70.54
3524;BME280;1776;53.330;11.498;2023-07-22T06:54:02;24798.91;;;-147.39;70.20
3524;BME280;1776;53.330;11.498;2023-07-22T06:56:28;24908.72;;;-147.39;70.41
3524;BME280;1776;53.330;11.498;2023-07-22T06:58:53;24800.94;;;-147.39;69.97
3524;BME280;1776;53.330;11.498;2023-07-22T07:01:18;24829.41;;;-147.39;69.49
3524;BME280;1776;53.330;11.498;2023-07-22T07:03:44;24825.34;;;-147.39;69.19
3524;BME280;1776;53.330;11.498;2023-07-22T07:06:09;24882.28;;;-147.39;68.70
3524;BME280;1776;53.330;11.498;2023-07-22T07:08:34;24896.53;;;-147.39;68.53
3524;BME280;1776;53.330;11.498;2023-07-22T07:11:00;24922.97;;;-147.39;67.98
3524;BME280;1776;53.330;11.498;2023-07-22T07:13:28;25012.44;;;-147.39;67.70
3524;BME280;1776;53.330;11.498;2023-07-22T07:15:54;24912.81;;;-147.39;68.11
3524;BME280;1776;53.330;11.498;2023-07-22T07:18:19;24945.34;;;-147.39;67.92
3524;BME280;1776;53.330;11.498;2023-07-22T07:20:45;24992.13;;;-147.39;67.89
3524;BME280;1776;53.330;11.498;2023-07-22T07:23:10;24963.63;;;-147.39;67.70
3524;BME280;1776;53.330;11.498;2023-07-22T07:25:35;25091.78;;;-147.39;67.90
3524;BME280;1776;53.330;11.498;2023-07-22T07:28:01;25010.41;;;-147.39;67.22
3524;BME280;1776;53.330;11.498;2023-07-22T07:30:26;25016.53;;;-147.39;66.71
3524;BME280;1776;53.330;11.498;2023-07-22T07:32:51;25038.88;;;-147.39;66.65
3524;BME280;1776;53.330;11.498;2023-07-22T07:35:16;24902.63;;;-147.39;65.94
3524;BME280;1776;53.330;11.498;2023-07-22T07:37:42;25112.09;;;-147.39;65.10
3524;BME280;1776;53.330;11.498;2023-07-22T07:40:07;25118.22;;;-147.39;64.97
3524;BME280;1776;53.330;11.498;2023-07-22T07:42:33;25122.28;;;-147.39;64.79
3524;BME280;1776;53.330;11.498;2023-07-22T07:44:58;25207.69;;;-147.39;64.16
3524;BME280;1776;53.330;11.498;2023-07-22T07:47:24;25195.50;;;-147.39;64.15
3524;BME280;1776;53.330;11.498;2023-07-22T07:49:49;25207.69;;;-147.39;63.81
3524;BME280;1776;53.330;11.498;2023-07-22T07:52:14;25315.50;;;-147.39;63.36
3524;BME280;1776;53.330;11.498;2023-07-22T07:54:39;25223.97;;;-147.39;63.03
3524;BME280;1776;53.330;11.498;2023-07-22T07:57:05;25250.41;;;-147.39;63.69
3524;BME280;1776;53.330;11.498;2023-07-22T07:59:31;25289.06;;;-147.39;62.89
3524;BME280;1776;53.330;11.498;2023-07-22T08:01:56;25329.72;;;-147.39;62.56
3524;BME280;1776;53.330;11.498;2023-07-22T08:04:21;25374.47;;;-147.39;62.12
3524;BME280;1776;53.330;11.498;2023-07-22T08:06:47;25339.91;;;-147.39;61.74
3524;BME280;1776;53.330;11.498;2023-07-22T08:09:12;25329.72;;;-147.39;61.50
3524;BME280;1776;53.330;11.498;2023-07-22T08:11:43;25362.28;;;-147.39;61.31
3524;BME280;1776;53.330;11.498;2023-07-22T08:14:09;25337.88;;;-147.39;61.32
3524;BME280;1776;53.330;11.498;2023-07-22T08:16:35;25392.78;;;-147.39;61.12
3524;BME280;1776;53.330;11.498;2023-07-22T08:19:00;25451.75;;;-147.39;60.49
3524;BME280;1776;53.330;11.498;2023-07-22T08:21:25;25472.09;;;-147.39;59.54
3524;BME280;1776;53.330;11.498;2023-07-22T08:23:50;25500.59;;;-147.39;59.69
3524;BME280;1776;53.330;11.498;2023-07-22T08:26:16;25541.25;;;-147.39;58.93
3524;BME280;1776;53.330;11.498;2023-07-22T08:28:46;25565.66;;;-147.39;58.80
3524;BME280;1776;53.330;11.498;2023-07-22T08:31:11;25541.25;;;-147.39;58.14
3524;BME280;1776;53.330;11.498;2023-07-22T08:33:36;25551.44;;;-147.39;58.43
3524;BME280;1776;53.330;11.498;2023-07-22T08:36:02;25588.03;;;-147.39;57.58
3524;BME280;1776;53.330;11.498;2023-07-22T08:38:27;25596.19;;;-147.39;57.45
3524;BME280;1776;53.330;11.498;2023-07-22T08:40:53;25596.19;;;-147.39;57.45
3524;BME280;1776;53.330;11.498;2023-07-22T08:43:22;25653.13;;;-147.39;57.10
3524;BME280;1776;53.330;11.498;2023-07-22T08:45:52;25677.53;;;-147.39;56.74
3524;BME280;1776;53.330;11.498;2023-07-22T08:48:21;25677.53;;;-147.39;55.76
3524;BME280;1776;53.330;11.498;2023-07-22T08:50:53;25740.59;;;-147.39;56.35
3524;BME280;1776;53.330;11.498;2023-07-22T08:53:18;25675.50;;;-147.39;55.97
3524;BME280;1776;53.330;11.498;2023-07-22T08:55:47;25742.63;;;-147.39;56.02
3524;BME280;1776;53.330;11.498;2023-07-22T08:58:16;25748.75;;;-147.39;55.41
3524;BME280;1776;53.330;11.498;2023-07-22T09:00:41;25730.44;;;-147.39;55.57
3524;BME280;1776;53.330;11.498;2023-07-22T09:03:07;25771.13;;;-147.39;55.90
3524;BME280;1776;53.330;11.498;2023-07-22T09:05:33;25756.88;;;-147.39;55.79
3524;BME280;1776;53.330;11.498;2023-07-22T09:08:01;25769.06;;;-147.39;55.39
3524;BME280;1776;53.330;11.498;2023-07-22T09:10:27;25783.31;;;-147.39;55.24
3524;BME280;1776;53.330;11.498;2023-07-22T09:12:53;25777.22;;;-147.39;55.38
3524;BME280;1776;53.330;11.498;2023-07-22T09:15:20;25791.44;;;-147.39;54.43
3524;BME280;1776;53.330;11.498;2023-07-22T09:17:46;25807.72;;;-147.39;54.46
3524;BME280;1776;53.330;11.498;2023-07-22T09:20:12;25830.09;;;-147.39;54.13
3524;BME280;1776;53.330;11.498;2023-07-22T09:22:49;25811.78;;;-147.39;54.41
3524;BME280;1776;53.330;11.498;2023-07-22T09:25:28;25817.91;;;-147.39;53.95
3524;BME280;1776;53.330;11.498;2023-07-22T09:27:55;25848.41;;;-147.39;53.93
3524;BME280;1776;53.330;11.498;2023-07-22T09:30:38;25852.47;;;-147.39;52.80
3524;BME280;1776;53.330;11.498;2023-07-22T09:33:06;25868.75;;;-147.39;53.10
3524;BME280;1776;53.330;11.498;2023-07-22T09:35:45;25860.63;;;-147.39;51.77
3524;BME280;1776;53.330;11.498;2023-07-22T09:38:10;25952.16;;;-147.39;52.07
3524;BME280;1776;53.330;11.498;2023-07-22T09:40:39;25927.75;;;-147.39;51.45
3524;BME280;1776;53.330;11.498;2023-07-22T09:43:05;25931.81;;;-147.39;51.77
3524;BME280;1776;53.330;11.498;2023-07-22T09:45:31;25907.41;;;-147.39;52.48
3524;BME280;1776;53.330;11.498;2023-07-22T09:47:58;25915.53;;;-147.39;52.38
3524;BME280;1776;53.330;11.498;2023-07-22T09:50:25;25948.09;;;-147.39;52.37
3524;BME280;1776;53.330;11.498;2023-07-22T09:52:55;25984.69;;;-147.39;52.25
3524;BME280;1776;53.330;11.498;2023-07-22T09:55:23;26059.97;;;-147.39;51.38
3524;BME280;1776;53.330;11.498;2023-07-22T09:58:00;26080.31;;;-147.39;49.24
3524;BME280;1776;53.330;11.498;2023-07-22T10:00:30;26157.63;;;-147.39;48.51
3524;BME280;1776;53.330;11.498;2023-07-22T10:02:59;26129.13;;;-147.39;48.76
3524;BME280;1776;53.330;11.498;2023-07-22T10:05:26;26116.94;;;-147.39;48.40
3524;BME280;1776;53.330;11.498;2023-07-22T10:07:54;26202.38;;;-147.39;48.55
3524;BME280;1776;53.330;11.498;2023-07-22T10:10:23;26155.59;;;-147.39;48.68
3524;BME280;1776;53.330;11.498;2023-07-22T10:12:50;26116.94;;;-147.39;50.21
3524;BME280;1776;53.330;11.498;2023-07-22T10:15:16;26127.09;;;-147.39;51.17
3524;BME280;1776;53.330;11.498;2023-07-22T10:17:44;26210.50;;;-147.39;49.73
3524;BME280;1776;53.330;11.498;2023-07-22T10:20:10;26214.59;;;-147.39;49.46
3524;BME280;1776;53.330;11.498;2023-07-22T10:22:41;26188.13;;;-147.39;49.09
3524;BME280;1776;53.330;11.498;2023-07-22T10:25:07;26253.22;;;-147.39;47.63
3524;BME280;1776;53.330;11.498;2023-07-22T10:27:34;26350.88;;;-147.39;46.84
3524;BME280;1776;53.330;11.498;2023-07-22T10:30:00;26293.91;;;-147.39;47.23
3524;BME280;1776;53.330;11.498;2023-07-22T10:32:38;26352.91;;;-147.39;46.87
3524;BME280;1776;53.330;11.498;2023-07-22T10:35:04;26312.22;;;-147.39;47.79
3524;BME280;1776;53.330;11.498;2023-07-22T10:37:32;26269.50;;;-147.39;48.39
3524;BME280;1776;53.330;11.498;2023-07-22T10:45:42;26279.69;;;-147.39;47.87
3524;BME280;1776;53.330;11.498;2023-07-22T10:48:12;26281.72;;;-147.39;48.41
3524;BME280;1776;53.330;11.498;2023-07-22T10:50:51;26379.38;;;-147.39;47.97
3524;BME280;1776;53.330;11.498;2023-07-22T11:04:13;26389.53;;;-147.39;44.48
3524;BME280;1776;53.330;11.498;2023-07-22T11:06:59;26448.53;;;-147.39;45.22
3524;BME280;1776;53.330;11.498;2023-07-22T11:14:45;26371.22;;;-147.39;45.54
3524;BME280;1776;53.330;11.498;2023-07-22T11:17:11;26436.34;;;-147.39;45.93
3524;BME280;1776;53.330;11.498;2023-07-22T11:19:37;26440.41;;;-147.39;45.69
3524;BME280;1776;53.330;11.498;2023-07-22T11:22:03;26576.72;;;-147.39;45.20
3524;BME280;1776;53.330;11.498;2023-07-22T11:24:32;26627.56;;;-147.39;44.26
3524;BME280;1776;53.330;11.498;2023-07-22T11:26:58;26548.22;;;-147.39;43.88
3524;BME280;1776;53.330;11.498;2023-07-22T11:29:23;26546.19;;;-147.39;43.91
3524;BME280;1776;53.330;11.498;2023-07-22T11:31:50;26509.56;;;-147.39;42.95
3524;BME280;1776;53.330;11.498;2023-07-22T11:34:17;26521.78;;;-147.39;42.12
3524;BME280;1776;53.330;11.498;2023-07-22T11:36:44;26544.16;;;-147.39;42.26
3524;BME280;1776;53.330;11.498;2023-07-22T11:39:11;26678.44;;;-147.39;41.92
3524;BME280;1776;53.330;11.498;2023-07-22T11:41:38;26686.59;;;-147.39;41.83
3524;BME280;1776;53.330;11.498;2023-07-22T11:44:04;26623.50;;;-147.39;41.24
3524;BME280;1776;53.330;11.498;2023-07-22T11:51:50;26839.19;;;-147.39;40.55
3524;BME280;1776;53.330;11.498;2023-07-22T11:54:16;26786.28;;;-147.39;40.36
3524;BME280;1776;53.330;11.498;2023-07-22T11:56:43;26778.13;;;-147.39;40.66
3524;BME280;1776;53.330;11.498;2023-07-22T11:59:08;26727.28;;;-147.39;40.35
3524;BME280;1776;53.330;11.498;2023-07-22T12:01:33;26802.56;;;-147.39;40.53
3524;BME280;1776;53.330;11.498;2023-07-22T12:03:59;26822.91;;;-147.39;39.84
3524;BME280;1776;53.330;11.498;2023-07-22T12:06:25;26869.69;;;-147.39;39.97
3524;BME280;1776;53.330;11.498;2023-07-22T12:08:51;26918.53;;;-147.39;40.27
3524;BME280;1776;53.330;11.498;2023-07-22T12:11:24;26871.75;;;-147.39;39.10
3524;BME280;1776;53.330;11.498;2023-07-22T12:14:09;26928.72;;;-147.39;39.43
3524;BME280;1776;53.330;11.498;2023-07-22T12:16:36;26947.03;;;-147.39;39.75
3524;BME280;1776;53.330;11.498;2023-07-22T12:19:02;26983.66;;;-147.39;39.50
3524;BME280;1776;53.330;11.498;2023-07-22T12:21:28;26971.44;;;-147.39;39.92
3524;BME280;1776;53.330;11.498;2023-07-22T12:23:53;26969.41;;;-147.39;40.14
3524;BME280;1776;53.330;11.498;2023-07-22T12:26:19;26894.13;;;-147.39;40.29
3524;BME280;1776;53.330;11.498;2023-07-22T12:28:44;26947.03;;;-147.39;40.83
3524;BME280;1776;53.330;11.498;2023-07-22T12:31:10;26932.78;;;-147.39;40.71
3524;BME280;1776;53.330;11.498;2023-07-22T12:33:35;26920.56;;;-147.39;41.28
3524;BME280;1776;53.330;11.498;2023-07-22T12:36:00;26975.50;;;-147.39;41.44
3524;BME280;1776;53.330;11.498;2023-07-22T12:38:25;26890.06;;;-147.39;41.45
3524;BME280;1776;53.330;11.498;2023-07-22T12:40:51;26816.81;;;-147.39;41.85
3524;BME280;1776;53.330;11.498;2023-07-22T12:43:16;26776.09;;;-147.39;42.11
3524;BME280;1776;53.330;11.498;2023-07-22T12:45:41;26820.88;;;-147.39;42.23
3524;BME280;1776;53.330;11.498;2023-07-22T12:48:07;26792.38;;;-147.39;42.26
3524;BME280;1776;53.330;11.498;2023-07-22T12:50:32;26818.84;;;-147.39;42.43
3524;BME280;1776;53.330;11.498;2023-07-22T12:53:02;26912.44;;;-147.39;42.02
3524;BME280;1776;53.330;11.498;2023-07-22T12:55:28;26973.47;;;-147.39;41.83
3524;BME280;1776;53.330;11.498;2023-07-22T12:57:53;26995.84;;;-147.39;40.61
3524;BME280;1776;53.330;11.498;2023-07-22T13:00:19;27001.97;;;-147.39;41.41
3524;BME280;1776;53.330;11.498;2023-07-22T13:02:44;27018.25;;;-147.39;40.50
3524;BME280;1776;53.330;11.498;2023-07-22T13:05:09;27107.78;;;-147.39;39.88
3524;BME280;1776;53.330;11.498;2023-07-22T13:07:35;27060.97;;;-147.39;39.43
3524;BME280;1776;53.330;11.498;2023-07-22T13:10:01;27046.72;;;-147.39;39.83
3524;BME280;1776;53.330;11.498;2023-07-22T13:12:28;26916.50;;;-147.39;39.71